메인 페이지
METAR-TAF:

METAR-TAF

공항 :

Sandane, 노르웨이

위도: 61-50N, 경도: 006-07E, 고도: 6m

현재 날씨관측

예보는 35분 전, 08:50시(UTC)에 발표되었습니다.
13kt남남동풍과 서남서풍을 오가는
온도 14°C
습도 58%
기압 1012 hPa
시정 10km 이상
고도 2500ft 상공 구름 조금
고도 3200ft 상공 구름 보통
고도 3700ft 상공 구름 많음
약한비

METAR: ENSD 200850Z 19013KT 160V250 9999 -RA FEW025 SCT032 BKN037 14/06 Q1012 RMK WIND RWY 26 26012KT WIND 1140FT 23015G30KT

시각: 11:25 (09:25 UTC)

예보

예보는 1 시간 25분 전, 08:00시(UTC)에 발표되었습니다.
예보 대상 시간: 20일 09시부터 20일 18시까지 (UTC)
남남서12kt
시정 10km 이상
고도 2500ft 상공 구름 조금
고도 3500ft 상공 구름 많음
일시적
20일 09시부터 20일 11시까지 (UTC)
남남서22kt, 순간 최대 풍속 35kt
확률 30% :
일시적
20일 09시부터 20일 18시까지 (UTC)
고도 2000ft 상공 구름 많음, 타워링 적운.
소나기
전환 중
20일 11시부터 20일 13시까지 (UTC)
서북서8kt

TAF: ENSD 200800Z 2009/2018 21012KT 9999 FEW025 BKN035 TEMPO 2009/2011 21022G35KT PROB30 TEMPO 2009/2018 SHRA BKN020TCU BECMG 2011/2013 30008KT

4,000개 이상의 공항 관측 자료 및 예보 (METAR 및 TAF 보고).

지도상에서 검색 가능한 기상관측소가 노란 점과 빨간 점으로 표시되어 있습니다.

기상관측소 명을 보려면 표시 위로 마우스를 이동하세요.

날씨 관측과 예보를 보려면 클릭하세요.

지도 변경 : 확대하려면 엑스 표시가 있는 녹색 버튼, 축소하려면 빼기 표시가 있는 녹색 버튼, 다음 페이지의 지도를 보려면 녹색 화살표를 클릭하세요.


METAR-TAF: